Regal Star — ESCM — position and weather

sailwx.info

Track history (hours):
 
Tides and Currents Weather Stations Pressure Air Temp Water Temp Dewpoint Dewpoint Depression Visibility Wind Speed Wind Dir Waves Ship Positions

Regal Star

Last reported at 2018-Feb-24 06:01 UTC. Time now 2018-Feb-24 10:08 UTC.
Position N 59°21' E 024°02'.

Length 157 m; draft 6.4 m.

Type: Ship (hazmat cat B). MMSI: 276554000.

Date/timePositionNaut miles runAvg speedWind from/ knotsBaromVisibWave heightAir tempDewpointWater temp
2018-Feb-24 06:01N 59°21' E 024°02'114.7
2018-Feb-24 05:57N 59°21' E 024°00'814.1
2018-Feb-24 05:22N 59°25' E 023°46'614.4
2018-Feb-24 04:58N 59°26' E 023°35'714.6
2018-Feb-24 04:30N 59°29' E 023°22'714.7
2018-Feb-24 04:00N 59°31' E 023°08'714.8
2018-Feb-24 03:30N 59°33' E 022°55'1715.3
2018-Feb-24 02:22N 59°35' E 022°20'615.7
2018-Feb-24 01:59N 59°35' E 022°09'715.4
2018-Feb-24 01:30N 59°35' E 021°54'815.6
2018-Feb-24 01:00N 59°35' E 021°39'815.6
2018-Feb-24 00:30N 59°34' E 021°23'815.3
2018-Feb-24 00:00N 59°36' E 021°08'4615.4
2018-Feb-23 21:03N 59°45' E 019°40'012.7
2018-Feb-23 21:00N 59°45' E 019°39'815.4
2018-Feb-23 20:30N 59°46' E 019°23'715.1
2018-Feb-23 20:00N 59°44' E 019°09'3 5.1
2018-Feb-23 19:28N 59°43' E 019°04'0 0.0
2018-Feb-23 18:58N 59°43' E 019°04'0 0.0
2018-Feb-23 18:28N 59°43' E 019°04'0 0.0
2018-Feb-23 17:58N 59°43' E 019°04'0 0.0
2018-Feb-23 17:28N 59°43' E 019°04'0 0.0
2018-Feb-23 16:58N 59°43' E 019°04'0 0.0
2018-Feb-23 16:28N 59°43' E 019°04'0 0.0
2018-Feb-23 15:58N 59°43' E 019°04'0 0.0
2018-Feb-23 15:28N 59°43' E 019°04'0 0.0
2018-Feb-23 14:58N 59°43' E 019°04'0 0.0
2018-Feb-23 14:28N 59°43' E 019°04'0 0.0
2018-Feb-23 13:58N 59°43' E 019°04'0 0.0
2018-Feb-23 13:28N 59°43' E 019°04'0 0.0
2018-Feb-23 12:58N 59°43' E 019°04'0 0.0
2018-Feb-23 12:28N 59°43' E 019°04'0 0.0
2018-Feb-23 11:58N 59°43' E 019°04'0 0.0
2018-Feb-23 11:28N 59°43' E 019°04'0 0.0
2018-Feb-23 10:58N 59°43' E 019°04'0 0.0
2018-Feb-23 10:28N 59°43' E 019°04'0 0.0
2018-Feb-23 09:58N 59°43' E 019°04'0 0.0
2018-Feb-23 09:28N 59°43' E 019°04'0 0.0
2018-Feb-23 08:55N 59°43' E 019°04'0 0.0
2018-Feb-23 08:28N 59°43' E 019°04'0 0.0
2018-Feb-23 07:58N 59°43' E 019°04'0 0.0
2018-Feb-23 07:28N 59°43' E 019°04'0 0.0
2018-Feb-23 06:58N 59°43' E 019°04'0 0.0
2018-Feb-23 06:28N 59°43' E 019°04'0 0.0
2018-Feb-23 05:58N 59°43' E 019°04'0 0.0
2018-Feb-23 05:28N 59°43' E 019°04'2 4.3
2018-Feb-23 05:01N 59°44' E 019°08'714.5
2018-Feb-23 04:30N 59°46' E 019°22'713.9
2018-Feb-23 04:01N 59°47' E 019°35'714.3
2018-Feb-23 03:30N 59°47' E 019°49'3914.6
2018-Feb-23 00:50N 59°38' E 021°05'514.8
2018-Feb-23 00:31N 59°37' E 021°14'815.0
2018-Feb-23 00:00N 59°36' E 021°29'815.3
2018-Feb-22 23:31N 59°34' E 021°43'1116.4
2018-Feb-22 22:51N 59°33' E 022°04'3116.1
2018-Feb-22 20:57N 59°29' E 023°04'715.7
2018-Feb-22 20:30N 59°27' E 023°18'815.5
2018-Feb-22 20:00N 59°26' E 023°33'16 1.1
2018-Feb-22 06:08N 59°20' E 024°02'315.7
2018-Feb-22 05:59N 59°22' E 023°59'915.7
2018-Feb-22 05:26N 59°25' E 023°43'716.1
2018-Feb-22 05:00N 59°27' E 023°30'816.4
2018-Feb-22 04:31N 59°30' E 023°15'816.6
2018-Feb-22 04:01N 59°32' E 022°59'916.5
2018-Feb-22 03:28N 59°35' E 022°42'1116.0
2018-Feb-22 02:48N 59°35' E 022°21'515.8
2018-Feb-22 02:31N 59°35' E 022°12'915.9
2018-Feb-22 01:57N 59°35' E 021°54'716.2
2018-Feb-22 01:30N 59°35' E 021°40'816.0
2018-Feb-22 01:00N 59°34' E 021°25'815.9
2018-Feb-22 00:30N 59°36' E 021°09'4615.9
2018-Feb-21 21:37N 59°45' E 019°40'216.3
2018-Feb-21 21:31N 59°45' E 019°37'816.0
2018-Feb-21 21:01N 59°46' E 019°21'814.9
2018-Feb-21 20:30N 59°43' E 019°06'1 2.4
2018-Feb-21 20:00N 59°43' E 019°04'0 0.0
2018-Feb-21 19:30N 59°43' E 019°04'0 0.0
2018-Feb-21 19:00N 59°43' E 019°04'0 0.0
2018-Feb-21 18:30N 59°43' E 019°04'0 0.0
2018-Feb-21 18:00N 59°43' E 019°04'0 0.0
2018-Feb-21 17:30N 59°43' E 019°04'0 0.0
2018-Feb-21 17:00N 59°43' E 019°04'0 0.0
2018-Feb-21 16:30N 59°43' E 019°04'0 0.0
2018-Feb-21 15:54N 59°43' E 019°04'0 0.0
2018-Feb-21 15:30N 59°43' E 019°04'0 0.0
2018-Feb-21 15:00N 59°43' E 019°04'0 0.0
2018-Feb-21 14:30N 59°43' E 019°04'0 0.0
2018-Feb-21 14:00N 59°43' E 019°04'0 0.0
2018-Feb-21 13:30N 59°43' E 019°04'0 0.0
2018-Feb-21 13:00N 59°43' E 019°04'0 0.0
2018-Feb-21 12:30N 59°43' E 019°04'0 0.0
2018-Feb-21 12:00N 59°43' E 019°04'0 0.0
2018-Feb-21 11:30N 59°43' E 019°04'0 0.0
2018-Feb-21 11:00N 59°43' E 019°04'0 0.0
2018-Feb-21 09:45N 59°43' E 019°04'0 0.0
2018-Feb-21 09:27N 59°43' E 019°04'0 0.0
2018-Feb-21 08:51N 59°43' E 019°04'0 0.0
2018-Feb-21 07:57N 59°43' E 019°04'0 0.0
2018-Feb-21 07:30N 59°43' E 019°04'0 0.0
2018-Feb-21 07:00N 59°43' E 019°04'0 0.0
2018-Feb-21 06:27N 59°43' E 019°04'0 0.0
2018-Feb-21 06:00N 59°43' E 019°04'0 0.0
2018-Feb-21 05:30N 59°43' E 019°04'2 4.6
2018-Feb-21 05:00N 59°44' E 019°08'713.9
2018-Feb-21 04:30N 59°46' E 019°21'612.9
2018-Feb-21 04:00N 59°45' E 019°34'713.3
2018-Feb-21 03:31N 59°43' E 019°47'713.8
2018-Feb-21 03:00N 59°40' E 019°59'3415.4
2018-Feb-21 00:47N 59°30' E 021°04'415.8
2018-Feb-21 00:30N 59°29' E 021°12'815.5
2018-Feb-21 00:00N 59°28' E 021°27'815.6
2018-Feb-20 23:30N 59°26' E 021°42'71 4.1
2018-Feb-20 06:10N 59°21' E 024°02'214.3
2018-Feb-20 06:00N 59°22' E 023°58'814.3
2018-Feb-20 05:26N 59°23' E 023°42'614.3
2018-Feb-20 04:59N 59°23' E 023°30'714.0
2018-Feb-20 04:28N 59°23' E 023°15'4414.6
2018-Feb-20 01:26N 59°29' E 021°49'715.7
2018-Feb-20 01:00N 59°31' E 021°37'815.6
2018-Feb-20 00:30N 59°33' E 021°22'815.7
2018-Feb-20 00:00N 59°36' E 021°07'4515.7
2018-Feb-19 21:10N 59°45' E 019°40'216.1
2018-Feb-19 21:00N 59°45' E 019°35'815.8
2018-Feb-19 20:30N 59°45' E 019°20'714.4
2018-Feb-19 20:01N 59°43' E 019°06'1 2.0
2018-Feb-19 19:29N 59°43' E 019°04'0 0.0
2018-Feb-19 18:59N 59°43' E 019°04'0 0.0
2018-Feb-19 18:29N 59°43' E 019°04'0 0.0
2018-Feb-19 17:59N 59°43' E 019°04'0 0.0
2018-Feb-19 17:26N 59°43' E 019°04'0 0.0
2018-Feb-19 16:59N 59°43' E 019°04'0 0.0
2018-Feb-19 16:29N 59°43' E 019°04'0 0.0
2018-Feb-19 15:59N 59°43' E 019°04'0 0.0
2018-Feb-19 15:29N 59°43' E 019°04'0 0.0
2018-Feb-19 14:59N 59°43' E 019°04'0 0.0
2018-Feb-19 14:29N 59°43' E 019°04'0 0.0
2018-Feb-19 13:59N 59°43' E 019°04'0 0.0
2018-Feb-19 13:29N 59°43' E 019°04'0 0.0
2018-Feb-19 12:59N 59°43' E 019°04'0 0.0
2018-Feb-19 12:29N 59°43' E 019°04'0 0.0
2018-Feb-19 11:59N 59°43' E 019°04'0 0.0
2018-Feb-19 07:51N 59°43' E 019°04'0 0.0
2018-Feb-19 07:23N 59°43' E 019°04'0 0.0
2018-Feb-19 06:59N 59°43' E 019°04'0 0.0
2018-Feb-19 06:26N 59°43' E 019°04'0 0.0
2018-Feb-19 05:59N 59°43' E 019°04'1 1.5
2018-Feb-19 05:31N 59°43' E 019°05'815.4
2018-Feb-19 05:01N 59°46' E 019°20'816.1
2018-Feb-19 04:31N 59°45' E 019°36'816.2
2018-Feb-19 04:00N 59°43' E 019°51'3916.1
2018-Feb-19 01:35N 59°30' E 021°05'116.3
2018-Feb-19 01:30N 59°30' E 021°07'816.1
2018-Feb-19 01:00N 59°28' E 021°22'816.2
2018-Feb-19 00:31N 59°26' E 021°38'74 9.3
2018-Feb-18 16:36N 59°20' E 024°02'1415.3
2018-Feb-18 15:41N 59°23' E 023°35'316.1
2018-Feb-18 15:31N 59°23' E 023°29'915.7
2018-Feb-18 14:57N 59°23' E 023°12'715.5
2018-Feb-18 14:30N 59°23' E 022°59'3515.7
2018-Feb-18 12:16N 59°29' E 021°50'415.9
2018-Feb-18 12:00N 59°30' E 021°43'816.1
2018-Feb-18 11:30N 59°32' E 021°27'816.1
2018-Feb-18 11:00N 59°34' E 021°12'816.2
2018-Feb-18 10:30N 59°37' E 020°57'3715.5
2018-Feb-18 08:07N 59°44' E 019°44'216.1
2018-Feb-18 08:01N 59°44' E 019°41'815.8
2018-Feb-18 07:30N 59°46' E 019°26'815.6
2018-Feb-18 07:00N 59°44' E 019°11'4 7.0
2018-Feb-18 06:30N 59°43' E 019°04'0 0.0
2018-Feb-18 06:00N 59°43' E 019°04'0 0.0
2018-Feb-18 05:27N 59°43' E 019°04'2 5.0
2018-Feb-18 05:01N 59°44' E 019°08'714.3
2018-Feb-18 04:31N 59°46' E 019°22'713.7
2018-Feb-18 04:01N 59°45' E 019°35'714.3
2018-Feb-18 03:31N 59°43' E 019°49'4014.8
2018-Feb-18 00:50N 59°30' E 021°03'515.9
2018-Feb-18 00:31N 59°29' E 021°13'815.6
2018-Feb-18 00:00N 59°27' E 021°28'815.6
2018-Feb-17 23:30N 59°26' E 021°43'72 4.2
2018-Feb-17 06:17N 59°20' E 024°04'1212.2
2018-Feb-17 05:18N 59°23' E 023°42'413.4
2018-Feb-17 04:59N 59°23' E 023°33'1013.6
2018-Feb-17 04:17N 59°23' E 023°14'4314.7
2018-Feb-17 01:20N 59°29' E 021°50'515.7
2018-Feb-17 01:00N 59°30' E 021°41'815.8
2018-Feb-17 00:30N 59°33' E 021°26'815.9
2018-Feb-17 00:00N 59°35' E 021°11'815.9
2018-Feb-16 23:30N 59°37' E 020°55'3915.4
2018-Feb-16 21:00N 59°45' E 019°40'815.8
2018-Feb-16 20:30N 59°46' E 019°25'815.5
2018-Feb-16 20:00N 59°44' E 019°11'3 6.2
2018-Feb-16 19:28N 59°43' E 019°04'0 0.0
2018-Feb-16 18:58N 59°43' E 019°04'0 0.0
2018-Feb-16 18:28N 59°43' E 019°04'0 0.0
2018-Feb-16 17:58N 59°43' E 019°04'0 0.0
2018-Feb-16 17:28N 59°43' E 019°04'0 0.0
2018-Feb-16 16:58N 59°43' E 019°04'0 0.0
2018-Feb-16 16:25N 59°43' E 019°04'0 0.0
2018-Feb-16 15:58N 59°43' E 019°04'0 0.0
2018-Feb-16 15:25N 59°43' E 019°04'0 0.0
2018-Feb-16 14:58N 59°43' E 019°04'0 0.0
2018-Feb-16 14:28N 59°43' E 019°04'0 0.0
2018-Feb-16 13:58N 59°43' E 019°04'0 0.0
2018-Feb-16 13:28N 59°43' E 019°04'0 0.0
2018-Feb-16 12:58N 59°43' E 019°04'0 0.0
2018-Feb-16 12:28N 59°43' E 019°04'0 0.0
2018-Feb-16 11:58N 59°43' E 019°04'0 0.0
2018-Feb-16 11:28N 59°43' E 019°04'0 0.0
2018-Feb-16 10:58N 59°43' E 019°04'0 0.0
2018-Feb-16 10:28N 59°43' E 019°04'0 0.0
2018-Feb-16 09:19N 59°43' E 019°04'0 0.0
2018-Feb-16 07:25N 59°43' E 019°04'0 0.0
2018-Feb-16 06:55N 59°43' E 019°04'0 0.0
2018-Feb-16 06:28N 59°43' E 019°04'0 0.0
2018-Feb-16 05:58N 59°43' E 019°04'0 0.0
2018-Feb-16 05:28N 59°43' E 019°04'2 4.7
2018-Feb-16 05:00N 59°44' E 019°08'815.4
2018-Feb-16 04:31N 59°46' E 019°23'611.9
2018-Feb-16 04:01N 59°45' E 019°34'712.9
2018-Feb-16 03:30N 59°43' E 019°47'4114.5
2018-Feb-16 00:40N 59°30' E 021°04'315.7
2018-Feb-16 00:31N 59°30' E 021°09'815.7
2018-Feb-16 00:01N 59°28' E 021°24'815.8
2018-Feb-15 23:30N 59°26' E 021°39'73 4.2
2018-Feb-15 06:08N 59°21' E 024°02'214.0
2018-Feb-15 05:59N 59°22' E 023°59'1514.3
2018-Feb-15 04:57N 59°23' E 023°30'814.5
2018-Feb-15 04:23N 59°23' E 023°14'4415.4
2018-Feb-15 01:32N 59°29' E 021°48'115.7
2018-Feb-15 01:27N 59°30' E 021°46'715.8
2018-Feb-15 01:00N 59°32' E 021°33'816.0
2018-Feb-15 00:30N 59°34' E 021°18'815.9
2018-Feb-15 00:00N 59°36' E 021°02'4215.8
2018-Feb-14 21:19N 59°45' E 019°40'516.3
2018-Feb-14 21:00N 59°46' E 019°30'815.9
2018-Feb-14 20:30N 59°44' E 019°15'511.0
2018-Feb-14 20:00N 59°43' E 019°04'0 0.0
2018-Feb-14 19:28N 59°43' E 019°04'0 0.0
2018-Feb-14 18:58N 59°43' E 019°04'0 0.0
2018-Feb-14 18:28N 59°43' E 019°04'0 0.0
2018-Feb-14 17:58N 59°43' E 019°04'0 0.0
2018-Feb-14 17:28N 59°43' E 019°04'0 0.0
2018-Feb-14 16:58N 59°43' E 019°04'0 0.0
2018-Feb-14 14:13N 59°43' E 019°04'0 0.0
2018-Feb-14 13:52N 59°43' E 019°04'0 0.0
2018-Feb-14 13:28N 59°43' E 019°04'0 0.0
2018-Feb-14 12:58N 59°43' E 019°04'0 0.0
2018-Feb-14 12:28N 59°43' E 019°04'0 0.0
2018-Feb-14 11:58N 59°43' E 019°04'0 0.0
2018-Feb-14 11:28N 59°43' E 019°04'0 0.0
2018-Feb-14 10:58N 59°43' E 019°04'0 0.0
2018-Feb-14 10:28N 59°43' E 019°04'0 0.0
2018-Feb-14 09:58N 59°43' E 019°04'0 0.0
2018-Feb-14 09:28N 59°43' E 019°04'0 0.0
2018-Feb-14 08:55N 59°43' E 019°04'0 0.0
2018-Feb-14 08:25N 59°43' E 019°04'0 0.0
2018-Feb-14 07:58N 59°43' E 019°04'0 0.0
2018-Feb-14 07:28N 59°43' E 019°04'0 0.0
2018-Feb-14 06:58N 59°43' E 019°04'0 0.0
2018-Feb-14 06:25N 59°43' E 019°04'  
Track history (hours):
 
Tides and Currents Weather Stations Pressure Air Temp Water Temp Dewpoint Dewpoint Depression Visibility Wind Speed Wind Dir Waves Ship Positions

Regal Star

Last reported at 2018-Feb-24 06:01 UTC. Time now 2018-Feb-24 10:08 UTC.
Position N 59°21' E 024°02'.

Length 157 m; draft 6.4 m.

Type: Ship (hazmat cat B). MMSI: 276554000.

Date/timePositionNaut miles runAvg speedWind from/ knotsBaromVisibWave heightAir tempDewpointWater temp
2018-Feb-24 06:01N 59°21' E 024°02'114.7
2018-Feb-24 05:57N 59°21' E 024°00'814.1
2018-Feb-24 05:22N 59°25' E 023°46'614.4
2018-Feb-24 04:58N 59°26' E 023°35'714.6
2018-Feb-24 04:30N 59°29' E 023°22'714.7
2018-Feb-24 04:00N 59°31' E 023°08'714.8
2018-Feb-24 03:30N 59°33' E 022°55'1715.3
2018-Feb-24 02:22N 59°35' E 022°20'615.7
2018-Feb-24 01:59N 59°35' E 022°09'715.4
2018-Feb-24 01:30N 59°35' E 021°54'815.6
2018-Feb-24 01:00N 59°35' E 021°39'815.6
2018-Feb-24 00:30N 59°34' E 021°23'815.3
2018-Feb-24 00:00N 59°36' E 021°08'4615.4
2018-Feb-23 21:03N 59°45' E 019°40'012.7
2018-Feb-23 21:00N 59°45' E 019°39'815.4
2018-Feb-23 20:30N 59°46' E 019°23'715.1
2018-Feb-23 20:00N 59°44' E 019°09'3 5.1
2018-Feb-23 19:28N 59°43' E 019°04'0 0.0
2018-Feb-23 18:58N 59°43' E 019°04'0 0.0
2018-Feb-23 18:28N 59°43' E 019°04'0 0.0
2018-Feb-23 17:58N 59°43' E 019°04'0 0.0
2018-Feb-23 17:28N 59°43' E 019°04'0 0.0
2018-Feb-23 16:58N 59°43' E 019°04'0 0.0
2018-Feb-23 16:28N 59°43' E 019°04'0 0.0
2018-Feb-23 15:58N 59°43' E 019°04'0 0.0
2018-Feb-23 15:28N 59°43' E 019°04'0 0.0
2018-Feb-23 14:58N 59°43' E 019°04'0 0.0
2018-Feb-23 14:28N 59°43' E 019°04'0 0.0
2018-Feb-23 13:58N 59°43' E 019°04'0 0.0
2018-Feb-23 13:28N 59°43' E 019°04'0 0.0
2018-Feb-23 12:58N 59°43' E 019°04'0 0.0
2018-Feb-23 12:28N 59°43' E 019°04'0 0.0
2018-Feb-23 11:58N 59°43' E 019°04'0 0.0
2018-Feb-23 11:28N 59°43' E 019°04'0 0.0
2018-Feb-23 10:58N 59°43' E 019°04'0 0.0
2018-Feb-23 10:28N 59°43' E 019°04'0 0.0
2018-Feb-23 09:58N 59°43' E 019°04'0 0.0
2018-Feb-23 09:28N 59°43' E 019°04'0 0.0
2018-Feb-23 08:55N 59°43' E 019°04'0 0.0
2018-Feb-23 08:28N 59°43' E 019°04'0 0.0
2018-Feb-23 07:58N 59°43' E 019°04'0 0.0
2018-Feb-23 07:28N 59°43' E 019°04'0 0.0
2018-Feb-23 06:58N 59°43' E 019°04'0 0.0
2018-Feb-23 06:28N 59°43' E 019°04'0 0.0
2018-Feb-23 05:58N 59°43' E 019°04'0 0.0
2018-Feb-23 05:28N 59°43' E 019°04'2 4.3
2018-Feb-23 05:01N 59°44' E 019°08'714.5
2018-Feb-23 04:30N 59°46' E 019°22'713.9
2018-Feb-23 04:01N 59°47' E 019°35'714.3
2018-Feb-23 03:30N 59°47' E 019°49'3914.6
2018-Feb-23 00:50N 59°38' E 021°05'514.8
2018-Feb-23 00:31N 59°37' E 021°14'815.0
2018-Feb-23 00:00N 59°36' E 021°29'815.3
2018-Feb-22 23:31N 59°34' E 021°43'1116.4
2018-Feb-22 22:51N 59°33' E 022°04'3116.1
2018-Feb-22 20:57N 59°29' E 023°04'715.7
2018-Feb-22 20:30N 59°27' E 023°18'815.5
2018-Feb-22 20:00N 59°26' E 023°33'16 1.1
2018-Feb-22 06:08N 59°20' E 024°02'315.7
2018-Feb-22 05:59N 59°22' E 023°59'915.7
2018-Feb-22 05:26N 59°25' E 023°43'716.1
2018-Feb-22 05:00N 59°27' E 023°30'816.4
2018-Feb-22 04:31N 59°30' E 023°15'816.6
2018-Feb-22 04:01N 59°32' E 022°59'916.5
2018-Feb-22 03:28N 59°35' E 022°42'1116.0
2018-Feb-22 02:48N 59°35' E 022°21'515.8
2018-Feb-22 02:31N 59°35' E 022°12'915.9
2018-Feb-22 01:57N 59°35' E 021°54'716.2
2018-Feb-22 01:30N 59°35' E 021°40'816.0
2018-Feb-22 01:00N 59°34' E 021°25'815.9
2018-Feb-22 00:30N 59°36' E 021°09'4615.9
2018-Feb-21 21:37N 59°45' E 019°40'216.3
2018-Feb-21 21:31N 59°45' E 019°37'816.0
2018-Feb-21 21:01N 59°46' E 019°21'814.9
2018-Feb-21 20:30N 59°43' E 019°06'1 2.4
2018-Feb-21 20:00N 59°43' E 019°04'0 0.0
2018-Feb-21 19:30N 59°43' E 019°04'0 0.0
2018-Feb-21 19:00N 59°43' E 019°04'0 0.0
2018-Feb-21 18:30N 59°43' E 019°04'0 0.0
2018-Feb-21 18:00N 59°43' E 019°04'0 0.0
2018-Feb-21 17:30N 59°43' E 019°04'0 0.0
2018-Feb-21 17:00N 59°43' E 019°04'0 0.0
2018-Feb-21 16:30N 59°43' E 019°04'0 0.0
2018-Feb-21 15:54N 59°43' E 019°04'0 0.0
2018-Feb-21 15:30N 59°43' E 019°04'0 0.0
2018-Feb-21 15:00N 59°43' E 019°04'0 0.0
2018-Feb-21 14:30N 59°43' E 019°04'0 0.0
2018-Feb-21 14:00N 59°43' E 019°04'0 0.0
2018-Feb-21 13:30N 59°43' E 019°04'0 0.0
2018-Feb-21 13:00N 59°43' E 019°04'0 0.0
2018-Feb-21 12:30N 59°43' E 019°04'0 0.0
2018-Feb-21 12:00N 59°43' E 019°04'0 0.0
2018-Feb-21 11:30N 59°43' E 019°04'0 0.0
2018-Feb-21 11:00N 59°43' E 019°04'0 0.0
2018-Feb-21 09:45N 59°43' E 019°04'0 0.0
2018-Feb-21 09:27N 59°43' E 019°04'0 0.0
2018-Feb-21 08:51N 59°43' E 019°04'0 0.0
2018-Feb-21 07:57N 59°43' E 019°04'0 0.0
2018-Feb-21 07:30N 59°43' E 019°04'0 0.0
2018-Feb-21 07:00N 59°43' E 019°04'0 0.0
2018-Feb-21 06:27N 59°43' E 019°04'0 0.0
2018-Feb-21 06:00N 59°43' E 019°04'0 0.0
2018-Feb-21 05:30N 59°43' E 019°04'2 4.6
2018-Feb-21 05:00N 59°44' E 019°08'713.9
2018-Feb-21 04:30N 59°46' E 019°21'612.9
2018-Feb-21 04:00N 59°45' E 019°34'713.3
2018-Feb-21 03:31N 59°43' E 019°47'713.8
2018-Feb-21 03:00N 59°40' E 019°59'3415.4
2018-Feb-21 00:47N 59°30' E 021°04'415.8
2018-Feb-21 00:30N 59°29' E 021°12'815.5
2018-Feb-21 00:00N 59°28' E 021°27'815.6
2018-Feb-20 23:30N 59°26' E 021°42'71 4.1
2018-Feb-20 06:10N 59°21' E 024°02'214.3
2018-Feb-20 06:00N 59°22' E 023°58'814.3
2018-Feb-20 05:26N 59°23' E 023°42'614.3
2018-Feb-20 04:59N 59°23' E 023°30'714.0
2018-Feb-20 04:28N 59°23' E 023°15'4414.6
2018-Feb-20 01:26N 59°29' E 021°49'715.7
2018-Feb-20 01:00N 59°31' E 021°37'815.6
2018-Feb-20 00:30N 59°33' E 021°22'815.7
2018-Feb-20 00:00N 59°36' E 021°07'4515.7
2018-Feb-19 21:10N 59°45' E 019°40'216.1
2018-Feb-19 21:00N 59°45' E 019°35'815.8
2018-Feb-19 20:30N 59°45' E 019°20'714.4
2018-Feb-19 20:01N 59°43' E 019°06'1 2.0
2018-Feb-19 19:29N 59°43' E 019°04'0 0.0
2018-Feb-19 18:59N 59°43' E 019°04'0 0.0
2018-Feb-19 18:29N 59°43' E 019°04'0 0.0
2018-Feb-19 17:59N 59°43' E 019°04'0 0.0
2018-Feb-19 17:26N 59°43' E 019°04'0 0.0
2018-Feb-19 16:59N 59°43' E 019°04'0 0.0
2018-Feb-19 16:29N 59°43' E 019°04'0 0.0
2018-Feb-19 15:59N 59°43' E 019°04'0 0.0
2018-Feb-19 15:29N 59°43' E 019°04'0 0.0
2018-Feb-19 14:59N 59°43' E 019°04'0 0.0
2018-Feb-19 14:29N 59°43' E 019°04'0 0.0
2018-Feb-19 13:59N 59°43' E 019°04'0 0.0
2018-Feb-19 13:29N 59°43' E 019°04'0 0.0
2018-Feb-19 12:59N 59°43' E 019°04'0 0.0
2018-Feb-19 12:29N 59°43' E 019°04'0 0.0
2018-Feb-19 11:59N 59°43' E 019°04'0 0.0
2018-Feb-19 07:51N 59°43' E 019°04'0 0.0
2018-Feb-19 07:23N 59°43' E 019°04'0 0.0
2018-Feb-19 06:59N 59°43' E 019°04'0 0.0
2018-Feb-19 06:26N 59°43' E 019°04'0 0.0
2018-Feb-19 05:59N 59°43' E 019°04'1 1.5
2018-Feb-19 05:31N 59°43' E 019°05'815.4
2018-Feb-19 05:01N 59°46' E 019°20'816.1
2018-Feb-19 04:31N 59°45' E 019°36'816.2
2018-Feb-19 04:00N 59°43' E 019°51'3916.1
2018-Feb-19 01:35N 59°30' E 021°05'116.3
2018-Feb-19 01:30N 59°30' E 021°07'816.1
2018-Feb-19 01:00N 59°28' E 021°22'816.2
2018-Feb-19 00:31N 59°26' E 021°38'74 9.3
2018-Feb-18 16:36N 59°20' E 024°02'1415.3
2018-Feb-18 15:41N 59°23' E 023°35'316.1
2018-Feb-18 15:31N 59°23' E 023°29'915.7
2018-Feb-18 14:57N 59°23' E 023°12'715.5
2018-Feb-18 14:30N 59°23' E 022°59'3515.7
2018-Feb-18 12:16N 59°29' E 021°50'415.9
2018-Feb-18 12:00N 59°30' E 021°43'816.1
2018-Feb-18 11:30N 59°32' E 021°27'816.1
2018-Feb-18 11:00N 59°34' E 021°12'816.2
2018-Feb-18 10:30N 59°37' E 020°57'3715.5
2018-Feb-18 08:07N 59°44' E 019°44'216.1
2018-Feb-18 08:01N 59°44' E 019°41'815.8
2018-Feb-18 07:30N 59°46' E 019°26'815.6
2018-Feb-18 07:00N 59°44' E 019°11'4 7.0
2018-Feb-18 06:30N 59°43' E 019°04'0 0.0
2018-Feb-18 06:00N 59°43' E 019°04'0 0.0
2018-Feb-18 05:27N 59°43' E 019°04'2 5.0
2018-Feb-18 05:01N 59°44' E 019°08'714.3
2018-Feb-18 04:31N 59°46' E 019°22'713.7
2018-Feb-18 04:01N 59°45' E 019°35'714.3
2018-Feb-18 03:31N 59°43' E 019°49'4014.8
2018-Feb-18 00:50N 59°30' E 021°03'515.9
2018-Feb-18 00:31N 59°29' E 021°13'815.6
2018-Feb-18 00:00N 59°27' E 021°28'815.6
2018-Feb-17 23:30N 59°26' E 021°43'72 4.2
2018-Feb-17 06:17N 59°20' E 024°04'1212.2
2018-Feb-17 05:18N 59°23' E 023°42'413.4
2018-Feb-17 04:59N 59°23' E 023°33'1013.6
2018-Feb-17 04:17N 59°23' E 023°14'4314.7
2018-Feb-17 01:20N 59°29' E 021°50'515.7
2018-Feb-17 01:00N 59°30' E 021°41'815.8
2018-Feb-17 00:30N 59°33' E 021°26'815.9
2018-Feb-17 00:00N 59°35' E 021°11'815.9
2018-Feb-16 23:30N 59°37' E 020°55'3915.4
2018-Feb-16 21:00N 59°45' E 019°40'815.8
2018-Feb-16 20:30N 59°46' E 019°25'815.5
2018-Feb-16 20:00N 59°44' E 019°11'3 6.2
2018-Feb-16 19:28N 59°43' E 019°04'0 0.0
2018-Feb-16 18:58N 59°43' E 019°04'0 0.0
2018-Feb-16 18:28N 59°43' E 019°04'0 0.0
2018-Feb-16 17:58N 59°43' E 019°04'0 0.0
2018-Feb-16 17:28N 59°43' E 019°04'0 0.0
2018-Feb-16 16:58N 59°43' E 019°04'0 0.0
2018-Feb-16 16:25N 59°43' E 019°04'0 0.0
2018-Feb-16 15:58N 59°43' E 019°04'0 0.0
2018-Feb-16 15:25N 59°43' E 019°04'0 0.0
2018-Feb-16 14:58N 59°43' E 019°04'0 0.0
2018-Feb-16 14:28N 59°43' E 019°04'0 0.0
2018-Feb-16 13:58N 59°43' E 019°04'0 0.0
2018-Feb-16 13:28N 59°43' E 019°04'0 0.0
2018-Feb-16 12:58N 59°43' E 019°04'0 0.0
2018-Feb-16 12:28N 59°43' E 019°04'0 0.0
2018-Feb-16 11:58N 59°43' E 019°04'0 0.0
2018-Feb-16 11:28N 59°43' E 019°04'0 0.0
2018-Feb-16 10:58N 59°43' E 019°04'0 0.0
2018-Feb-16 10:28N 59°43' E 019°04'0 0.0
2018-Feb-16 09:19N 59°43' E 019°04'0 0.0
2018-Feb-16 07:25N 59°43' E 019°04'0 0.0
2018-Feb-16 06:55N 59°43' E 019°04'0 0.0
2018-Feb-16 06:28N 59°43' E 019°04'0 0.0
2018-Feb-16 05:58N 59°43' E 019°04'0 0.0
2018-Feb-16 05:28N 59°43' E 019°04'2 4.7
2018-Feb-16 05:00N 59°44' E 019°08'815.4
2018-Feb-16 04:31N 59°46' E 019°23'611.9
2018-Feb-16 04:01N 59°45' E 019°34'712.9
2018-Feb-16 03:30N 59°43' E 019°47'4114.5
2018-Feb-16 00:40N 59°30' E 021°04'315.7
2018-Feb-16 00:31N 59°30' E 021°09'815.7
2018-Feb-16 00:01N 59°28' E 021°24'815.8
2018-Feb-15 23:30N 59°26' E 021°39'73 4.2
2018-Feb-15 06:08N 59°21' E 024°02'214.0
2018-Feb-15 05:59N 59°22' E 023°59'1514.3
2018-Feb-15 04:57N 59°23' E 023°30'814.5
2018-Feb-15 04:23N 59°23' E 023°14'4415.4
2018-Feb-15 01:32N 59°29' E 021°48'115.7
2018-Feb-15 01:27N 59°30' E 021°46'715.8
2018-Feb-15 01:00N 59°32' E 021°33'816.0
2018-Feb-15 00:30N 59°34' E 021°18'815.9
2018-Feb-15 00:00N 59°36' E 021°02'4215.8
2018-Feb-14 21:19N 59°45' E 019°40'516.3
2018-Feb-14 21:00N 59°46' E 019°30'815.9
2018-Feb-14 20:30N 59°44' E 019°15'511.0
2018-Feb-14 20:00N 59°43' E 019°04'0 0.0
2018-Feb-14 19:28N 59°43' E 019°04'0 0.0
2018-Feb-14 18:58N 59°43' E 019°04'0 0.0
2018-Feb-14 18:28N 59°43' E 019°04'0 0.0
2018-Feb-14 17:58N 59°43' E 019°04'0 0.0
2018-Feb-14 17:28N 59°43' E 019°04'0 0.0
2018-Feb-14 16:58N 59°43' E 019°04'0 0.0
2018-Feb-14 14:13N 59°43' E 019°04'0 0.0
2018-Feb-14 13:52N 59°43' E 019°04'0 0.0
2018-Feb-14 13:28N 59°43' E 019°04'0 0.0
2018-Feb-14 12:58N 59°43' E 019°04'0 0.0
2018-Feb-14 12:28N 59°43' E 019°04'0 0.0
2018-Feb-14 11:58N 59°43' E 019°04'0 0.0
2018-Feb-14 11:28N 59°43' E 019°04'0 0.0
2018-Feb-14 10:58N 59°43' E 019°04'0 0.0
2018-Feb-14 10:28N 59°43' E 019°04'0 0.0
2018-Feb-14 09:58N 59°43' E 019°04'0 0.0
2018-Feb-14 09:28N 59°43' E 019°04'0 0.0
2018-Feb-14 08:55N 59°43' E 019°04'0 0.0
2018-Feb-14 08:25N 59°43' E 019°04'0 0.0
2018-Feb-14 07:58N 59°43' E 019°04'0 0.0
2018-Feb-14 07:28N 59°43' E 019°04'0 0.0
2018-Feb-14 06:58N 59°43' E 019°04'0 0.0
2018-Feb-14 06:25N 59°43' E 019°04'  

Dump ship's entire track history